Time;durP1;ratioP1;P1;durP2;ratioP2;P2;SDS_P1;SDS_P2;PMS_P1;PMS_P2;Temp;Humidity;BMP_temperature;BMP_pressure;BME280_temperature;BME280_humidity;BME280_pressure;Samples;Min_cycle;Max_cycle;Signal;HPM_P1;HPM_P2
2022/07/06 00:02:26;;;;;;;6.75;3.67;;;;;;;22.63;57.20;99485.22;4492166;31;33670;-58
2022/07/06 00:04:54;;;;;;;5.35;3.70;;;;;;;22.43;58.42;99481.47;4497775;31;33924;-58
2022/07/06 00:07:22;;;;;;;5.78;3.97;;;;;;;22.16;59.01;99483.97;4496974;31;32236;-57
2022/07/06 00:09:50;;;;;;;5.30;3.42;;;;;;;22.29;58.30;99475.91;4493464;31;32879;-57
2022/07/06 00:12:17;;;;;;;5.18;3.70;;;;;;;21.96;58.60;99482.91;4500066;31;33693;-57
2022/07/06 00:14:45;;;;;;;7.82;4.12;;;;;;;21.92;59.57;99482.44;4494794;31;34411;-60
2022/07/06 00:17:13;;;;;;;9.95;3.90;;;;;;;21.38;61.32;99480.22;4498795;31;33610;-59
2022/07/06 00:19:41;;;;;;;7.37;3.92;;;;;;;22.15;58.77;99475.97;4497517;31;35050;-60
2022/07/06 00:22:09;;;;;;;6.28;3.80;;;;;;;22.29;58.23;99480.53;4499288;31;33676;-58
2022/07/06 00:24:36;;;;;;;5.78;3.53;;;;;;;22.15;58.12;99475.97;4498118;31;33419;-59
2022/07/06 00:27:04;;;;;;;5.97;3.95;;;;;;;21.89;59.41;99480.13;4488639;31;32092;-58
2022/07/06 00:29:32;;;;;;;7.12;3.83;;;;;;;21.89;59.74;99479.28;4491055;31;33861;-56
2022/07/06 00:31:59;;;;;;;8.27;4.45;;;;;;;21.86;59.25;99472.31;4490295;31;33776;-60
2022/07/06 00:34:27;;;;;;;6.57;3.92;;;;;;;21.84;59.72;99474.44;4494953;31;33460;-57
2022/07/06 00:36:55;;;;;;;6.70;4.07;;;;;;;22.33;58.19;99469.03;4482346;31;33601;-59
2022/07/06 00:39:28;;;;;;;6.20;3.87;;;;;;;22.71;56.81;99465.09;4494593;31;34077;-56
2022/07/06 00:41:57;;;;;;;9.13;3.97;;;;;;;22.62;56.97;99467.13;4493233;31;33460;-58
2022/07/06 00:44:24;;;;;;;8.30;3.72;;;;;;;22.37;57.68;99474.09;4493714;31;31878;-57
2022/07/06 00:46:52;;;;;;;6.50;4.10;;;;;;;22.93;55.87;99466.75;4497761;31;33683;-58
2022/07/06 00:52:06;;;;;;;7.40;4.37;;;;;;;22.18;57.59;99460.09;4482798;31;32556;-57
2022/07/06 00:54:34;;;;;;;7.22;4.60;;;;;;;22.36;57.34;99462.34;4499243;31;33020;-57
2022/07/06 00:57:02;;;;;;;7.57;3.85;;;;;;;22.12;57.93;99458.13;4497846;31;33529;-58
2022/07/06 00:59:30;;;;;;;6.62;4.03;;;;;;;22.63;56.38;99451.59;4497347;31;33724;-58
2022/07/06 01:01:58;;;;;;;5.30;3.85;;;;;;;22.51;56.74;99444.00;4495641;31;33523;-57
2022/07/06 01:04:26;;;;;;;8.98;4.03;;;;;;;22.21;57.57;99447.94;4499208;31;33740;-57
2022/07/06 01:06:54;;;;;;;5.80;3.45;;;;;;;22.03;58.14;99442.97;4493493;31;33875;-56
2022/07/06 01:09:22;;;;;;;5.82;3.80;;;;;;;22.15;57.57;99448.69;4483101;31;35128;-56
2022/07/06 01:11:50;;;;;;;6.12;3.80;;;;;;;22.08;57.94;99448.66;4493798;31;32542;-56
2022/07/06 01:14:18;;;;;;;5.93;3.85;;;;;;;21.70;59.26;99448.94;4498277;31;33452;-59
2022/07/06 01:16:46;;;;;;;7.00;4.10;;;;;;;21.67;59.23;99453.91;4498180;31;33805;-56
2022/07/06 01:19:13;;;;;;;6.20;3.97;;;;;;;21.52;59.76;99454.81;4499579;31;33912;-59
2022/07/06 01:21:41;;;;;;;4.75;3.72;;;;;;;21.09;61.51;99459.25;4496448;31;35082;-56
2022/07/06 01:24:10;;;;;;;6.30;3.97;;;;;;;21.78;59.14;99464.31;4497905;31;34643;-57
2022/07/06 01:26:38;;;;;;;5.57;4.10;;;;;;;21.67;59.50;99473.84;4496660;31;32687;-59
2022/07/06 01:29:06;;;;;;;6.15;4.03;;;;;;;21.65;60.03;99470.44;4499460;31;33712;-57
2022/07/06 01:31:34;;;;;;;4.60;3.70;;;;;;;22.29;57.44;99466.91;4495227;31;33908;-59
2022/07/06 01:34:01;;;;;;;5.47;3.70;;;;;;;22.29;57.13;99467.75;4483767;32;33592;-58
2022/07/06 01:36:29;;;;;;;7.05;3.87;;;;;;;22.42;56.92;99477.06;4497505;31;32230;-58
2022/07/06 01:38:58;;;;;;;5.50;3.70;;;;;;;22.26;57.01;99470.03;4495373;31;32267;-57
2022/07/06 01:41:25;;;;;;;5.45;3.87;;;;;;;22.34;56.78;99469.84;4496189;31;33975;-59
2022/07/06 01:43:53;;;;;;;6.15;4.25;;;;;;;21.19;60.33;99468.00;4499215;31;33181;-57
2022/07/06 01:46:22;;;;;;;6.50;4.40;;;;;;;21.71;59.00;99468.84;4498982;31;32618;-57
2022/07/06 01:48:49;;;;;;;7.22;4.30;;;;;;;21.40;59.76;99465.34;4496708;31;34440;-58
2022/07/06 01:51:17;;;;;;;7.90;4.45;;;;;;;21.26;60.63;99471.66;4496338;31;32722;-57
2022/07/06 01:53:46;;;;;;;5.68;4.07;;;;;;;21.35;60.20;99470.53;4499578;31;33514;-57
2022/07/06 01:56:14;;;;;;;9.55;4.32;;;;;;;21.51;59.83;99471.31;4498201;31;34601;-58
2022/07/06 01:58:42;;;;;;;7.65;4.40;;;;;;;21.28;60.55;99472.28;4495844;31;32980;-60
2022/07/06 02:01:12;;;;;;;6.45;4.32;;;;;;;22.14;57.56;99477.00;4498814;31;32601;-56
2022/07/06 02:03:40;;;;;;;6.22;4.20;;;;;;;21.22;60.44;99483.97;4498316;31;34467;-60
2022/07/06 02:06:08;;;;;;;6.57;4.50;;;;;;;21.30;60.32;99480.28;4496923;31;33573;-57
2022/07/06 02:08:36;;;;;;;7.40;4.78;;;;;;;21.41;59.90;99485.25;4498285;31;33958;-58
2022/07/06 02:11:08;;;;;;;6.87;4.72;;;;;;;21.37;60.08;99492.09;4498321;31;34138;-57
2022/07/06 02:13:37;;;;;;;5.87;4.28;;;;;;;21.60;59.52;99483.78;4497795;31;34674;-60
2022/07/06 02:16:05;;;;;;;5.70;4.30;;;;;;;21.11;61.07;99495.31;4498481;31;34744;-57
2022/07/06 02:18:33;;;;;;;8.82;5.22;;;;;;;21.10;61.11;99494.47;4496297;31;33850;-58
2022/07/06 02:21:01;;;;;;;8.55;4.65;;;;;;;21.64;59.26;99501.44;4497326;31;32538;-57
2022/07/06 02:23:29;;;;;;;8.10;4.78;;;;;;;21.42;59.90;99505.16;4497737;31;34321;-58
2022/07/06 02:25:57;;;;;;;8.52;5.18;;;;;;;21.19;60.72;99500.66;4497796;31;35399;-58
2022/07/06 02:28:25;;;;;;;7.65;5.28;;;;;;;21.18;60.71;99501.66;4496680;31;32868;-57
2022/07/06 02:30:53;;;;;;;6.18;4.93;;;;;;;21.76;59.26;99509.94;4497883;31;33472;-59
2022/07/06 02:33:21;;;;;;;6.62;4.87;;;;;;;21.86;58.65;99488.66;4495188;31;32825;-59
2022/07/06 02:35:49;;;;;;;10.07;5.12;;;;;;;21.78;58.87;99475.19;4498562;31;33578;-57
2022/07/06 02:38:16;;;;;;;8.10;5.30;;;;;;;21.52;59.49;99481.19;4498617;31;34293;-56
2022/07/06 02:40:44;;;;;;;7.55;5.85;;;;;;;20.93;61.77;99488.38;4497272;31;33477;-60
2022/07/06 02:43:12;;;;;;;6.95;5.30;;;;;;;21.05;61.17;99493.34;4497484;31;34008;-58
2022/07/06 02:45:40;;;;;;;10.25;5.78;;;;;;;21.49;59.87;99495.19;4496909;31;33639;-58
2022/07/06 02:48:09;;;;;;;8.15;5.62;;;;;;;21.51;59.81;99498.56;4496794;31;33992;-57
2022/07/06 02:50:36;;;;;;;8.95;5.68;;;;;;;20.80;61.69;99498.19;4498155;31;32661;-58
2022/07/06 02:53:04;;;;;;;9.05;5.75;;;;;;;21.27;60.68;99494.25;4495980;31;33451;-57
2022/07/06 02:55:32;;;;;;;8.27;5.85;;;;;;;21.01;61.59;99503.75;4496101;31;33704;-60
2022/07/06 02:58:00;;;;;;;8.27;6.35;;;;;;;21.01;61.45;99508.34;4497406;31;34170;-58
2022/07/06 03:00:29;;;;;;;9.55;6.28;;;;;;;20.67;62.52;99516.03;4495558;31;33766;-57
2022/07/06 03:02:57;;;;;;;10.48;6.45;;;;;;;20.39;63.63;99513.03;4495401;31;34311;-60
2022/07/06 03:05:25;;;;;;;7.68;6.03;;;;;;;20.28;64.21;99521.59;4498644;31;33722;-57
2022/07/06 03:07:53;;;;;;;7.72;5.57;;;;;;;20.92;61.86;99532.06;4493560;31;32754;-63
2022/07/06 03:10:21;;;;;;;8.55;6.37;;;;;;;21.12;61.18;99538.66;4498016;31;34697;-58
2022/07/06 03:12:50;;;;;;;8.38;5.10;;;;;;;20.37;63.54;99534.09;4492327;31;33385;-59
2022/07/06 03:15:17;;;;;;;8.10;6.30;;;;;;;20.68;62.52;99539.47;4496338;31;35466;-60
2022/07/06 03:17:45;;;;;;;8.13;5.90;;;;;;;20.33;63.94;99542.81;4496916;31;34023;-61
2022/07/06 03:20:13;;;;;;;7.70;4.28;;;;;;;20.18;64.46;99540.03;4498269;31;34847;-57
2022/07/06 03:22:41;;;;;;;7.35;5.07;;;;;;;20.70;62.60;99531.94;4496166;31;33909;-60
2022/07/06 03:25:09;;;;;;;7.50;5.60;;;;;;;19.87;65.41;99535.53;4496333;31;33700;-60
2022/07/06 03:27:37;;;;;;;9.73;6.20;;;;;;;20.52;63.42;99550.50;4492454;31;34260;-59
2022/07/06 03:30:06;;;;;;;8.35;5.80;;;;;;;20.38;63.74;99546.66;4498463;31;32628;-58
2022/07/06 03:32:41;;;;;;;9.88;6.45;;;;;;;20.41;63.56;99556.31;4497137;31;33339;-58
2022/07/06 03:35:09;;;;;;;9.98;6.50;;;;;;;19.55;66.22;99542.78;4498148;31;33921;-59
2022/07/06 03:37:37;;;;;;;8.75;6.12;;;;;;;20.08;64.54;99540.28;4497572;31;33666;-58
2022/07/06 03:40:06;;;;;;;9.40;5.07;;;;;;;19.99;64.75;99552.22;4497816;31;33492;-58
2022/07/06 03:42:35;;;;;;;9.68;5.95;;;;;;;19.59;66.26;99543.28;4494815;31;34537;-59
2022/07/06 03:45:05;;;;;;;7.30;5.55;;;;;;;20.16;64.29;99545.66;4495828;31;33879;-58
2022/07/06 03:47:33;;;;;;;8.02;5.85;;;;;;;20.30;63.55;99543.19;4495970;31;33710;-58
2022/07/06 03:50:01;;;;;;;10.98;6.47;;;;;;;20.20;63.93;99541.56;4496499;31;33640;-58
2022/07/06 03:52:29;;;;;;;8.90;6.32;;;;;;;19.88;64.89;99547.22;4494748;31;32327;-58
2022/07/06 03:54:57;;;;;;;7.55;5.18;;;;;;;19.77;65.67;99549.31;4494918;31;33768;-60
2022/07/06 03:57:25;;;;;;;7.05;4.40;;;;;;;19.39;66.73;99542.00;4493719;31;35278;-58
2022/07/06 03:59:53;;;;;;;8.60;5.97;;;;;;;19.83;65.53;99553.16;4497376;31;33887;-59
2022/07/06 04:02:21;;;;;;;6.85;5.75;;;;;;;20.34;64.05;99544.50;4496260;31;32147;-60
2022/07/06 04:04:50;;;;;;;7.12;5.57;;;;;;;20.54;63.37;99542.16;4494211;31;33943;-59
2022/07/06 04:07:18;;;;;;;8.57;5.78;;;;;;;21.18;60.89;99529.72;4496661;31;34198;-57
2022/07/06 04:09:46;;;;;;;8.88;5.50;;;;;;;21.21;61.18;99523.06;4497776;31;34937;-58
2022/07/06 04:12:14;;;;;;;9.38;5.32;;;;;;;21.43;60.04;99529.47;4494229;31;34547;-59
2022/07/06 04:14:43;;;;;;;8.68;6.18;;;;;;;21.47;59.70;99529.91;4495365;31;33911;-58
2022/07/06 04:19:58;;;;;;;8.25;5.53;;;;;;;20.88;61.96;99538.94;4494809;31;34992;-57
2022/07/06 04:22:26;;;;;;;8.20;5.78;;;;;;;21.17;60.88;99535.37;4496168;31;33058;-57
2022/07/06 04:24:54;;;;;;;8.32;5.72;;;;;;;21.30;60.70;99532.81;4497242;31;33662;-57
2022/07/06 04:27:22;;;;;;;10.48;5.37;;;;;;;21.92;59.02;99536.94;4493452;31;35277;-58
2022/07/06 04:29:49;;;;;;;8.50;5.80;;;;;;;22.07;58.31;99543.19;4497452;31;35001;-60
2022/07/06 04:32:17;;;;;;;7.25;5.60;;;;;;;22.23;57.96;99538.56;4495764;31;32895;-63
2022/07/06 04:34:52;;;;;;;8.73;5.20;;;;;;;22.28;57.70;99522.47;4486806;31;32795;-58
2022/07/06 04:37:20;;;;;;;7.43;5.03;;;;;;;22.75;55.95;99526.41;4494796;31;33101;-61
2022/07/06 04:39:48;;;;;;;8.40;6.00;;;;;;;22.76;56.17;99515.31;4495900;31;33875;-62
2022/07/06 04:42:16;;;;;;;8.05;5.20;;;;;;;22.26;57.25;99525.38;4495963;31;33475;-58
2022/07/06 04:44:44;;;;;;;8.57;5.57;;;;;;;21.77;58.65;99530.72;4495260;31;33900;-61
2022/07/06 04:47:13;;;;;;;8.77;5.50;;;;;;;22.14;57.51;99531.50;4496569;31;32694;-58
2022/07/06 04:49:41;;;;;;;8.02;5.78;;;;;;;22.55;56.68;99531.72;4497195;31;33855;-60
2022/07/06 04:52:09;;;;;;;9.88;5.78;;;;;;;22.08;57.51;99535.84;4495604;31;33355;-60
2022/07/06 04:54:37;;;;;;;8.85;6.12;;;;;;;21.81;58.53;99541.03;4494895;31;34734;-59
2022/07/06 04:57:04;;;;;;;11.23;6.22;;;;;;;21.47;59.15;99538.94;4495719;31;33876;-57
2022/07/06 04:59:39;;;;;;;8.65;6.12;;;;;;;21.94;58.01;99540.34;4489248;31;33897;-58
2022/07/06 05:02:07;;;;;;;7.18;6.00;;;;;;;21.95;58.42;99538.44;4495903;31;33148;-60
2022/07/06 05:04:35;;;;;;;8.20;5.87;;;;;;;22.28;57.25;99538.84;4495407;31;33326;-60
2022/07/06 05:07:03;;;;;;;7.40;5.28;;;;;;;22.58;56.83;99539.50;4496311;31;35354;-58
2022/07/06 05:09:31;;;;;;;9.32;5.78;;;;;;;23.06;55.08;99538.84;4495358;31;33415;-60
2022/07/06 05:11:59;;;;;;;7.45;5.97;;;;;;;23.07;54.92;99543.22;4495187;31;34772;-58
2022/07/06 05:14:26;;;;;;;10.80;6.68;;;;;;;23.12;54.97;99548.94;4495667;31;34774;-59
2022/07/06 05:16:55;;;;;;;16.92;6.40;;;;;;;22.91;55.14;99549.81;4496598;31;32784;-61
2022/07/06 05:19:23;;;;;;;8.23;5.82;;;;;;;22.93;55.73;99554.06;4490306;31;33192;-59
2022/07/06 05:21:51;;;;;;;10.00;5.72;;;;;;;23.44;53.74;99553.75;4494978;31;33459;-58
2022/07/06 05:24:21;;;;;;;7.82;6.05;;;;;;;23.06;54.48;99552.47;4491705;31;33682;-60
2022/07/06 05:26:49;;;;;;;8.20;5.87;;;;;;;23.08;54.75;99555.84;4491615;31;33873;-60
2022/07/06 05:29:17;;;;;;;8.88;5.62;;;;;;;23.46;54.12;99550.78;4495802;31;34019;-62
2022/07/06 05:31:46;;;;;;;7.85;6.18;;;;;;;22.85;55.66;99565.09;4494039;31;33739;-58
2022/07/06 05:34:14;;;;;;;9.40;6.37;;;;;;;22.59;56.30;99570.34;4494755;31;33734;-58
2022/07/06 05:36:41;;;;;;;9.27;5.87;;;;;;;22.23;56.92;99561.22;4494607;31;32705;-60
2022/07/06 05:39:09;;;;;;;8.68;5.75;;;;;;;22.23;57.29;99574.00;4490052;31;33850;-59
2022/07/06 05:41:37;;;;;;;9.98;6.20;;;;;;;22.69;56.59;99581.75;4492303;31;32070;-59
2022/07/06 05:44:05;;;;;;;8.40;6.45;;;;;;;22.41;57.13;99585.31;4495170;31;34530;-59
2022/07/06 05:46:33;;;;;;;9.15;6.55;;;;;;;22.78;55.89;99586.03;4496702;31;32757;-61
2022/07/06 05:51:47;;;;;;;9.55;6.37;;;;;;;22.09;57.91;99583.91;4493222;31;31966;-58
2022/07/06 05:54:16;;;;;;;8.02;6.12;;;;;;;22.45;57.09;99596.66;4493330;31;34884;-61
2022/07/06 05:56:43;;;;;;;8.85;6.15;;;;;;;22.78;56.36;99596.94;4494466;31;35437;-61
2022/07/06 05:59:12;;;;;;;12.52;6.10;;;;;;;22.67;56.86;99598.34;4494771;31;34998;-60
2022/07/06 06:01:40;;;;;;;8.55;6.37;;;;;;;23.41;54.66;99603.31;4494120;31;33284;-60
2022/07/06 06:04:08;;;;;;;9.93;6.55;;;;;;;23.41;54.20;99607.94;4487962;31;33854;-59
2022/07/06 06:06:36;;;;;;;8.20;6.10;;;;;;;23.29;55.36;99602.19;4482988;31;34213;-61
2022/07/06 06:09:04;;;;;;;9.55;7.20;;;;;;;23.48;54.49;99592.41;4485593;31;32477;-59
2022/07/06 06:11:32;;;;;;;8.10;5.82;;;;;;;24.17;53.19;99608.72;4483194;31;31804;-58
2022/07/06 06:13:59;;;;;;;8.07;6.35;;;;;;;23.75;53.78;99603.50;4494394;31;32255;-60
2022/07/06 06:16:27;;;;;;;8.45;6.18;;;;;;;23.19;54.89;99616.19;4494700;31;32838;-59
2022/07/06 06:18:55;;;;;;;9.90;7.00;;;;;;;23.19;55.19;99618.91;4494896;31;33969;-59
2022/07/06 06:21:23;;;;;;;10.63;7.18;;;;;;;23.76;53.70;99619.69;4494901;31;34326;-59
2022/07/06 06:23:50;;;;;;;9.85;7.40;;;;;;;23.57;53.55;99617.69;4495319;31;34202;-59
2022/07/06 06:26:18;;;;;;;10.68;7.45;;;;;;;23.70;53.48;99606.84;4495156;31;33730;-58
2022/07/06 06:28:46;;;;;;;8.73;6.62;;;;;;;23.39;54.58;99607.28;4494712;31;33761;-58
2022/07/06 06:31:13;;;;;;;9.68;6.65;;;;;;;23.94;53.39;99595.38;4483866;31;31882;-61
2022/07/06 06:33:41;;;;;;;7.90;7.10;;;;;;;23.77;53.07;99591.31;4491752;31;33719;-59
2022/07/06 06:36:09;;;;;;;9.40;7.53;;;;;;;23.55;54.08;99598.75;4480346;31;35272;-60
2022/07/06 06:38:36;;;;;;;9.57;6.57;;;;;;;23.37;54.36;99612.09;4480728;31;33694;-59
2022/07/06 06:41:04;;;;;;;8.43;6.68;;;;;;;23.71;53.92;99614.81;4494776;31;33345;-58
2022/07/06 06:43:31;;;;;;;8.27;7.05;;;;;;;23.75;54.27;99615.25;4496728;31;32365;-58
2022/07/06 06:45:59;;;;;;;11.95;7.22;;;;;;;23.58;53.78;99622.09;4487822;31;34685;-59
2022/07/06 06:48:27;;;;;;;10.05;7.12;;;;;;;23.42;54.70;99610.44;4495177;31;33786;-59
2022/07/06 06:50:55;;;;;;;9.18;6.55;;;;;;;23.43;54.03;99622.22;4493289;31;34193;-59
2022/07/06 06:53:23;;;;;;;10.00;7.35;;;;;;;23.24;54.52;99623.75;4497591;31;33817;-59
2022/07/06 06:55:50;;;;;;;9.95;6.97;;;;;;;23.06;55.34;99610.63;4496022;31;33730;-59
2022/07/06 06:58:18;;;;;;;9.48;6.50;;;;;;;22.67;55.86;99611.13;4496645;31;33506;-59
2022/07/06 07:00:47;;;;;;;8.70;6.57;;;;;;;22.77;55.74;99608.91;4494079;31;32210;-59
2022/07/06 07:03:15;;;;;;;9.95;6.82;;;;;;;23.21;55.06;99608.66;4497952;31;33801;-58
2022/07/06 07:05:42;;;;;;;9.43;6.22;;;;;;;23.23;55.29;99600.25;4496093;31;32887;-60
2022/07/06 07:08:10;;;;;;;11.70;6.68;;;;;;;23.44;54.75;99605.63;4498489;31;33698;-58
2022/07/06 07:10:38;;;;;;;8.30;6.55;;;;;;;23.63;54.00;99604.06;4497787;31;33635;-58
2022/07/06 07:13:05;;;;;;;7.80;6.05;;;;;;;23.85;54.14;99604.81;4500397;31;33862;-58
2022/07/06 07:15:33;;;;;;;7.07;5.62;;;;;;;23.71;53.69;99603.91;4497951;31;34011;-58
2022/07/06 07:18:00;;;;;;;8.20;5.20;;;;;;;23.97;53.55;99606.94;4487685;31;33435;-59
2022/07/06 07:20:29;;;;;;;9.57;5.85;;;;;;;24.06;53.31;99608.47;4496731;31;34957;-57
2022/07/06 07:22:57;;;;;;;7.97;5.53;;;;;;;23.54;53.52;99612.63;4498983;31;32621;-58
2022/07/06 07:25:25;;;;;;;7.72;5.75;;;;;;;24.14;52.99;99609.12;4497677;31;34140;-58
2022/07/06 07:27:53;;;;;;;6.68;4.57;;;;;;;24.63;52.09;99602.50;4500167;31;33845;-59
2022/07/06 07:30:21;;;;;;;7.18;5.30;;;;;;;25.20;49.97;99610.28;4489549;31;31832;-59
2022/07/06 07:32:49;;;;;;;8.20;5.93;;;;;;;24.96;50.65;99604.37;4500613;31;33811;-59
2022/07/06 07:35:16;;;;;;;9.55;5.55;;;;;;;25.23;50.61;99618.06;4497910;31;33979;-59
2022/07/06 07:37:44;;;;;;;7.93;5.10;;;;;;;25.31;49.77;99606.91;4499387;31;34194;-59
2022/07/06 07:40:12;;;;;;;11.60;5.55;;;;;;;25.06;51.11;99617.66;4495212;31;31940;-59
2022/07/06 07:42:40;;;;;;;7.30;5.05;;;;;;;25.83;48.87;99631.66;4498586;31;35197;-61
2022/07/06 07:45:08;;;;;;;6.57;5.15;;;;;;;25.28;49.04;99624.59;4495020;31;33894;-59
2022/07/06 07:47:36;;;;;;;8.73;4.87;;;;;;;25.72;47.71;99617.53;4497325;31;33994;-60
2022/07/06 07:50:04;;;;;;;6.57;5.05;;;;;;;25.24;48.97;99617.03;4499141;31;32107;-60
2022/07/06 07:52:32;;;;;;;8.15;5.25;;;;;;;25.77;48.67;99614.97;4485030;31;34309;-58
2022/07/06 07:55:00;;;;;;;8.38;5.72;;;;;;;25.49;49.06;99612.56;4489757;31;35305;-59
2022/07/06 07:57:48;;;;;;;7.65;5.28;;;;;;;25.23;49.71;99621.69;4497659;31;34061;-59
2022/07/06 08:00:16;;;;;;;7.68;4.57;;;;;;;25.75;48.93;99621.75;4499192;31;33925;-60
2022/07/06 08:02:44;;;;;;;8.38;5.40;;;;;;;25.69;47.55;99620.72;4497570;31;35143;-59
2022/07/06 08:05:13;;;;;;;7.45;5.45;;;;;;;25.65;47.37;99619.47;4486149;31;34846;-62
2022/07/06 08:07:42;;;;;;;7.72;5.72;;;;;;;25.78;47.68;99618.59;4496681;31;33673;-59
2022/07/06 08:10:10;;;;;;;8.90;5.35;;;;;;;25.82;47.72;99619.03;4489130;31;33199;-58
2022/07/06 08:12:38;;;;;;;7.15;5.35;;;;;;;25.93;47.34;99624.66;4497672;31;35259;-61
2022/07/06 08:15:12;;;;;;;9.68;5.40;;;;;;;25.61;47.24;99626.41;4497755;31;31035;-58
2022/07/06 08:17:40;;;;;;;7.32;5.00;;;;;;;26.29;46.12;99623.19;4494932;31;34058;-58
2022/07/06 08:20:08;;;;;;;8.65;4.87;;;;;;;26.33;45.90;99623.62;4485490;31;33570;-60
2022/07/06 08:22:36;;;;;;;7.78;4.55;;;;;;;26.40;45.16;99630.75;4485549;31;32396;-59
2022/07/06 08:25:05;;;;;;;8.27;4.78;;;;;;;25.73;45.66;99634.81;4493250;31;32757;-59
2022/07/06 08:27:33;;;;;;;8.55;5.07;;;;;;;26.25;46.38;99628.28;4494448;31;34987;-58
2022/07/06 08:30:02;;;;;;;8.45;4.90;;;;;;;26.30;46.18;99629.56;4497534;31;34681;-61
2022/07/06 08:32:30;;;;;;;7.68;4.95;;;;;;;26.06;46.26;99628.41;4500226;31;33868;-58
2022/07/06 08:35:18;;;;;;;8.02;5.60;;;;;;;26.13;46.08;99627.31;4499458;31;34003;-59
2022/07/06 08:37:45;;;;;;;6.25;4.80;;;;;;;26.56;45.54;99629.41;4497907;31;33987;-59
2022/07/06 08:40:13;;;;;;;8.40;5.18;;;;;;;26.41;45.54;99631.56;4500800;31;32031;-58
2022/07/06 08:42:42;;;;;;;9.32;5.28;;;;;;;26.66;45.10;99634.41;4497164;31;34861;-59
2022/07/06 08:45:10;;;;;;;7.97;5.53;;;;;;;26.14;46.11;99648.19;4485283;31;33260;-60
2022/07/06 08:47:37;;;;;;;8.32;5.37;;;;;;;26.40;45.74;99649.13;4491073;31;35114;-58
2022/07/06 08:50:06;;;;;;;7.75;5.53;;;;;;;26.15;45.39;99652.63;4497214;31;34224;-60
2022/07/06 08:52:34;;;;;;;7.90;5.47;;;;;;;26.17;45.80;99647.75;4497253;31;34843;-59
2022/07/06 08:55:02;;;;;;;9.73;5.95;;;;;;;27.02;43.24;99649.34;4499563;31;34290;-58
2022/07/06 08:57:31;;;;;;;6.78;4.97;;;;;;;26.23;45.39;99637.81;4484764;32;33984;-58
2022/07/06 08:59:58;;;;;;;8.30;4.53;;;;;;;26.50;45.26;99634.94;4495477;31;33459;-60
2022/07/06 09:02:26;;;;;;;8.27;5.12;;;;;;;26.90;44.41;99635.47;4494948;31;34017;-58
2022/07/06 09:04:58;;;;;;;7.28;4.90;;;;;;;27.24;43.71;99639.66;4496179;31;34152;-62
2022/07/06 09:07:28;;;;;;;8.20;5.40;;;;;;;27.02;43.48;99639.19;4499094;31;34904;-58
2022/07/06 09:10:18;;;;;;;7.32;5.18;;;;;;;27.05;43.03;99633.25;4498635;31;33474;-60
2022/07/06 09:12:46;;;;;;;8.25;4.70;;;;;;;27.05;42.93;99648.88;4482895;31;33620;-59
2022/07/06 09:15:14;;;;;;;8.82;5.22;;;;;;;26.83;43.21;99645.69;4490727;31;35002;-62
2022/07/06 09:17:43;;;;;;;9.65;4.85;;;;;;;26.86;42.93;99643.31;4496774;31;33353;-60
2022/07/06 09:20:13;;;;;;;6.57;4.45;;;;;;;27.35;40.78;99638.06;4496673;31;34261;-58
2022/07/06 09:22:41;;;;;;;6.35;4.60;;;;;;;27.57;40.92;99632.97;4493158;31;33002;-57
2022/07/06 09:25:12;;;;;;;8.40;4.50;;;;;;;27.53;40.96;99635.34;4500243;31;35275;-58
2022/07/06 09:27:42;;;;;;;5.72;4.32;;;;;;;28.02;40.79;99627.19;4498937;31;33532;-59
2022/07/06 09:30:10;;;;;;;6.00;4.20;;;;;;;28.61;39.25;99632.97;4496467;31;33614;-58
2022/07/06 09:32:43;;;;;;;6.10;3.83;;;;;;;28.46;39.31;99631.47;4492383;31;33967;-60
2022/07/06 09:35:27;;;;;;;6.75;4.60;;;;;;;28.54;38.35;99639.41;4494881;31;34341;-58
2022/07/06 09:38:12;;;;;;;6.80;3.80;;;;;;;28.59;38.16;99635.09;4485748;31;33580;-57
2022/07/06 09:40:44;;;;;;;;;;;;;;;28.32;38.12;99633.56;4494305;31;33404;-61
2022/07/06 09:43:14;;;;;;;6.85;3.90;;;;;;;29.16;36.70;99633.56;4495815;31;34544;-58
2022/07/06 09:45:44;;;;;;;8.27;3.87;;;;;;;29.11;37.02;99627.91;4498712;31;33504;-59
2022/07/06 09:48:13;;;;;;;9.65;4.35;;;;;;;29.71;36.10;99624.91;4498187;31;35025;-58
2022/07/06 09:50:46;;;;;;;7.90;4.28;;;;;;;29.85;36.02;99625.47;4496561;31;34626;-61
2022/07/06 09:53:15;;;;;;;6.28;3.85;;;;;;;29.59;35.93;99637.84;4494422;31;32184;-59
2022/07/06 09:55:44;;;;;;;7.10;4.07;;;;;;;29.60;34.86;99633.16;4492750;31;34281;-59
2022/07/06 09:58:13;;;;;;;5.93;3.65;;;;;;;29.30;35.27;99630.56;4495368;31;34837;-58
2022/07/06 10:00:47;;;;;;;7.28;3.90;;;;;;;29.35;35.14;99625.19;4484572;31;31754;-60
2022/07/06 10:03:16;;;;;;;6.18;4.00;;;;;;;29.41;34.62;99638.00;4482257;31;33695;-62
2022/07/06 10:05:49;;;;;;;6.85;3.75;;;;;;;29.35;34.67;99631.53;4491239;31;33950;-59
2022/07/06 10:08:17;;;;;;;7.13;4.30;;;;;;;29.64;33.76;99631.66;4491859;31;34958;-60
2022/07/06 10:10:46;;;;;;;7.60;3.20;;;;;;;30.18;33.77;99629.47;4493642;31;34532;-58
2022/07/06 10:13:14;;;;;;;6.25;3.12;;;;;;;29.86;34.10;99631.84;4488896;31;33694;-60
2022/07/06 10:15:42;;;;;;;7.90;3.50;;;;;;;29.89;32.16;99636.88;4487560;31;32753;-59
2022/07/06 10:18:10;;;;;;;7.78;4.00;;;;;;;29.96;32.50;99636.75;4495423;31;35077;-58
2022/07/06 10:20:39;;;;;;;10.68;3.92;;;;;;;30.69;31.93;99630.44;4491446;31;31988;-59
2022/07/06 10:23:08;;;;;;;5.40;2.95;;;;;;;29.96;31.52;99636.75;4492980;31;33973;-58
2022/07/06 10:25:35;;;;;;;7.45;2.80;;;;;;;29.87;30.27;99630.75;4497412;31;33579;-60
2022/07/06 10:28:10;;;;;;;5.85;2.90;;;;;;;29.43;30.82;99633.06;4498420;31;33843;-56
2022/07/06 10:30:43;;;;;;;5.55;2.90;;;;;;;29.77;30.21;99639.66;4499181;31;33393;-61
2022/07/06 10:33:14;;;;;;;4.53;3.05;;;;;;;30.14;29.53;99623.59;4501314;31;34880;-58
2022/07/06 10:35:42;;;;;;;5.53;3.15;;;;;;;30.21;29.82;99640.06;4499348;31;34912;-60
2022/07/06 10:38:11;;;;;;;4.78;3.20;;;;;;;30.59;28.82;99631.12;4484098;31;34649;-58
2022/07/06 10:43:46;;;;;;;6.37;2.87;;;;;;;30.03;28.66;99641.03;4484645;31;32314;-59
2022/07/06 10:46:16;;;;;;;5.87;2.80;;;;;;;30.21;27.96;99639.19;4493457;31;32693;-62
2022/07/06 10:48:46;;;;;;;4.60;2.97;;;;;;;30.78;27.98;99634.47;4499318;31;34624;-59
2022/07/06 10:51:26;;;;;;;4.80;2.80;;;;;;;31.46;26.16;99635.34;4491790;31;31982;-57
2022/07/06 10:54:00;;;;;;;5.00;3.00;;;;;;;30.61;25.65;99631.69;4497866;31;34167;-58
2022/07/06 10:56:51;;;;;;;5.32;2.87;;;;;;;30.83;26.67;99642.03;4485764;31;32278;-60
2022/07/06 10:59:23;;;;;;;4.43;2.78;;;;;;;30.11;27.36;99648.94;4490329;31;34106;-57
2022/07/06 11:02:13;;;;;;;4.87;3.00;;;;;;;30.18;27.48;99629.47;4489470;31;32140;-58
2022/07/06 11:04:44;;;;;;;4.35;2.87;;;;;;;30.12;27.35;99636.81;4497268;31;35224;-57
2022/07/06 11:07:13;;;;;;;5.80;2.90;;;;;;;30.40;26.57;99637.91;4483717;31;32502;-58
2022/07/06 11:09:47;;;;;;;8.02;3.50;;;;;;;30.58;26.89;99634.09;4489638;31;32480;-58
2022/07/06 11:12:18;;;;;;;5.78;3.30;;;;;;;30.55;27.38;99623.56;4495755;31;34527;-56
2022/07/06 11:14:48;;;;;;;9.40;2.97;;;;;;;30.64;27.72;99628.41;4488526;31;32574;-60
2022/07/06 11:17:16;;;;;;;8.35;2.97;;;;;;;30.76;26.37;99625.59;4489745;31;32547;-59
2022/07/06 11:19:57;;;;;;;5.62;2.95;;;;;;;30.49;26.07;99627.31;4487624;31;34242;-58
2022/07/06 11:22:26;;;;;;;4.95;2.75;;;;;;;29.91;26.97;99638.28;4490195;31;34415;-58
2022/07/06 11:24:57;;;;;;;5.55;2.58;;;;;;;30.38;25.20;99640.94;4486475;31;33493;-58
2022/07/06 11:27:24;;;;;;;5.75;3.30;;;;;;;30.32;26.53;99619.00;4487520;31;32655;-60
2022/07/06 11:29:53;;;;;;;6.72;3.90;;;;;;;30.53;25.78;99637.63;4491908;31;34470;-58
2022/07/06 11:32:25;;;;;;;5.55;3.20;;;;;;;30.55;25.91;99640.97;4493425;31;34830;-58
2022/07/06 11:34:53;;;;;;;5.40;3.25;;;;;;;30.46;26.96;99652.66;4495803;31;34855;-58
2022/07/06 11:37:23;;;;;;;7.85;2.80;;;;;;;31.08;26.32;99653.53;4491682;31;32698;-57
2022/07/06 11:39:50;;;;;;;3.67;1.90;;;;;;;30.65;24.27;99643.06;4498030;31;33019;-58
2022/07/06 11:42:19;;;;;;;4.45;2.20;;;;;;;30.73;21.72;99650.97;4486842;31;31705;-58
2022/07/06 11:44:46;;;;;;;4.72;2.45;;;;;;;30.89;22.52;99652.09;4495186;31;35124;-59
2022/07/06 11:47:15;;;;;;;5.10;2.55;;;;;;;29.99;24.32;99661.91;4489174;31;35481;-59
2022/07/06 11:49:52;;;;;;;5.15;2.92;;;;;;;30.33;24.21;99651.84;4498945;31;35326;-59
2022/07/06 11:52:19;;;;;;;5.60;2.70;;;;;;;30.24;26.17;99644.22;4492858;31;33550;-60
2022/07/06 11:54:47;;;;;;;4.55;2.37;;;;;;;30.16;24.06;99670.25;4485244;31;33012;-61